Time;durP1;ratioP1;P1;durP2;ratioP2;P2;SDS_P1;SDS_P2;PMS_P1;PMS_P2;Temp;Humidity;BMP_temperature;BMP_pressure;BME280_temperature;BME280_humidity;BME280_pressure;Samples;Min_cycle;Max_cycle;Signal;HPM_P1;HPM_P2
2023/10/25 08:29:24;;;;;;;36.73;17.43;;;;;;;10.78;100.00;97544.38;5109772;28;21066;-83
2023/10/25 08:31:52;;;;;;;34.53;16.07;;;;;;;11.28;100.00;97555.13;5091917;28;39621;-84
2023/10/25 08:34:21;;;;;;;29.53;16.67;;;;;;;11.57;100.00;97523.44;5074776;28;40944;-84
2023/10/25 08:36:49;;;;;;;26.63;16.10;;;;;;;11.94;100.00;97515.75;5090052;28;43736;-83
2023/10/25 08:39:21;;;;;;;22.17;14.70;;;;;;;12.34;100.00;97508.53;5090567;28;42707;-84
2023/10/25 08:41:52;;;;;;;20.17;13.13;;;;;;;12.67;100.00;97512.56;5107571;28;40169;-84
2023/10/25 08:44:20;;;;;;;19.63;12.30;;;;;;;12.90;100.00;97505.09;5090555;28;42479;-84
2023/10/25 08:46:51;;;;;;;12.77;9.87;;;;;;;13.15;100.00;97520.47;5090417;28;42060;-84
2023/10/25 08:49:19;;;;;;;12.27;9.67;;;;;;;13.21;100.00;97514.56;5090582;28;42655;-84
2023/10/25 08:51:49;;;;;;;11.47;9.03;;;;;;;13.34;100.00;97518.72;5090726;28;39259;-84
2023/10/25 08:54:26;;;;;;;10.93;8.90;;;;;;;13.34;100.00;97513.41;5107482;28;42268;-86
2023/10/25 08:56:54;;;;;;;9.53;7.37;;;;;;;13.29;100.00;97508.53;5090017;28;41902;-85
2023/10/25 08:59:22;;;;;;;8.23;6.93;;;;;;;13.42;100.00;97526.81;5107096;28;42515;-88
2023/10/25 09:01:51;;;;;;;9.80;7.67;;;;;;;13.37;100.00;97502.47;5106892;28;40747;-84
2023/10/25 09:04:18;;;;;;;8.40;6.97;;;;;;;13.83;100.00;97528.16;5106921;28;40816;-83
2023/10/25 09:06:46;;;;;;;10.20;7.63;;;;;;;14.23;100.00;97506.44;5108271;28;42683;-85
2023/10/25 09:09:14;;;;;;;8.73;7.13;;;;;;;14.71;100.00;97480.25;5106833;28;42294;-84
2023/10/25 09:11:43;;;;;;;9.60;7.43;;;;;;;15.15;100.00;97511.38;5090352;28;39100;-86
2023/10/25 09:14:13;;;;;;;9.63;7.97;;;;;;;15.34;98.80;97495.16;5091037;28;40841;-86
2023/10/25 09:16:44;;;;;;;8.43;7.13;;;;;;;15.91;95.73;97512.28;5091169;28;41949;-86
2023/10/25 09:19:19;;;;;;;7.10;6.30;;;;;;;16.21;93.37;97513.53;5108015;28;41373;-85
2023/10/25 09:21:46;;;;;;;8.20;6.83;;;;;;;16.71;92.19;97509.94;5091146;28;41446;-86
2023/10/25 09:24:14;;;;;;;7.57;6.70;;;;;;;17.03;89.10;97496.56;5091184;28;40692;-84
2023/10/25 09:26:41;;;;;;;8.17;6.50;;;;;;;17.27;87.82;97490.31;5108032;28;41659;-86
2023/10/25 09:29:11;;;;;;;6.83;5.90;;;;;;;17.58;84.80;97491.22;5090382;28;41099;-86
2023/10/25 09:31:39;;;;;;;7.30;6.27;;;;;;;18.05;81.03;97511.78;5109053;28;40865;-85
2023/10/25 09:34:09;;;;;;;6.70;6.00;;;;;;;18.11;78.26;97495.03;5107623;28;41050;-85
2023/10/25 09:36:38;;;;;;;6.60;5.77;;;;;;;18.24;77.82;97495.28;5107849;28;43739;-87
2023/10/25 09:39:06;;;;;;;5.70;5.10;;;;;;;18.04;79.09;97478.00;5102890;28;42136;-87
2023/10/25 09:41:38;;;;;;;5.70;4.83;;;;;;;17.58;79.26;97443.03;5093511;28;39031;-82
2023/10/25 09:44:17;;;;;;;4.90;4.43;;;;;;;17.54;79.63;97455.13;5075792;28;41927;-85
2023/10/25 09:46:47;;;;;;;4.50;4.10;;;;;;;17.32;79.85;97445.16;5092771;28;43477;-85
2023/10/25 09:49:16;;;;;;;4.03;3.63;;;;;;;17.13;79.25;97445.56;5075799;28;41337;-84
2023/10/25 09:52:05;;;;;;;4.53;4.13;;;;;;;17.04;81.25;97439.41;5092568;28;38788;-85
2023/10/25 09:54:34;;;;;;;3.43;3.13;;;;;;;17.22;81.96;97433.81;5075797;28;41973;-86
2023/10/25 09:57:04;;;;;;;4.40;4.00;;;;;;;17.45;79.18;97434.72;5093282;28;42642;-85
2023/10/25 09:59:32;;;;;;;4.10;3.70;;;;;;;17.89;78.59;97453.81;5092825;28;42294;-88
2023/10/25 10:02:01;;;;;;;4.27;3.50;;;;;;;17.74;76.85;97438.66;5075648;28;41072;-85
2023/10/25 10:04:48;;;;;;;3.30;3.00;;;;;;;17.77;77.34;97439.16;5075876;28;40159;-85
2023/10/25 10:07:30;;;;;;;2.83;2.63;;;;;;;18.13;74.17;97426.03;5092840;28;42361;-88
2023/10/25 10:10:06;;;;;;;3.30;3.00;;;;;;;18.27;73.88;97441.34;5075905;28;40713;-84
2023/10/25 10:12:35;;;;;;;4.83;3.37;;;;;;;18.60;71.72;97430.38;5093058;28;38894;-87
2023/10/25 10:15:02;;;;;;;4.80;2.83;;;;;;;19.75;69.59;97438.88;5076597;28;42158;-85
2023/10/25 10:17:34;;;;;;;3.53;2.90;;;;;;;21.86;64.72;97418.06;5094680;28;43384;-84
2023/10/25 10:20:05;;;;;;;2.70;2.50;;;;;;;24.29;55.81;97472.16;5091926;28;42710;-83
2023/10/25 10:22:34;;;;;;;2.50;2.30;;;;;;;24.58;52.45;97449.09;5093328;28;39093;-83
2023/10/25 10:25:04;;;;;;;2.40;2.30;;;;;;;23.89;51.22;97474.19;5076487;28;41387;-83
2023/10/25 10:28:02;;;;;;;2.20;2.10;;;;;;;23.31;51.73;97470.56;5075752;28;42658;-85
2023/10/25 10:30:38;;;;;;;2.20;2.00;;;;;;;22.60;52.26;97440.66;5076591;28;41048;-85
2023/10/25 10:33:08;;;;;;;2.00;1.90;;;;;;;22.16;55.25;97412.34;5076104;28;38974;-87
2023/10/25 10:35:36;;;;;;;2.60;2.40;;;;;;;21.58;54.36;97441.56;5076183;28;41017;-87
2023/10/25 10:38:06;;;;;;;4.17;2.37;;;;;;;21.01;54.80;97423.81;5076081;28;43076;-87
2023/10/25 10:40:33;;;;;;;2.33;2.23;;;;;;;20.50;56.46;97403.53;5075872;28;41367;-85
2023/10/25 10:43:01;;;;;;;2.80;2.20;;;;;;;20.06;58.43;97383.84;5096268;28;39284;-82
2023/10/25 10:45:30;;;;;;;2.47;2.20;;;;;;;19.91;58.77;97375.00;5101591;28;41234;-83
2023/10/25 10:48:07;;;;;;;1.97;1.87;;;;;;;19.96;58.22;97391.41;5093427;28;43280;-84
2023/10/25 10:50:35;;;;;;;2.57;2.37;;;;;;;19.76;58.83;97378.78;5088651;28;41998;-85
2023/10/25 10:53:03;;;;;;;1.90;1.80;;;;;;;19.63;59.24;97385.66;5091302;28;38987;-83
2023/10/25 10:55:32;;;;;;;1.97;1.87;;;;;;;19.37;60.27;97370.03;5092040;28;42598;-86
2023/10/25 10:57:59;;;;;;;2.70;2.50;;;;;;;19.14;60.57;97369.31;5091932;28;42960;-86
2023/10/25 11:00:27;;;;;;;2.97;2.60;;;;;;;19.00;61.59;97368.28;5074568;28;43458;-86
2023/10/25 11:02:55;;;;;;;5.00;2.67;;;;;;;18.64;60.56;97346.72;5125700;27;39763;-85
2023/10/25 11:05:23;;;;;;;2.80;2.60;;;;;;;18.34;62.13;97344.13;5074630;28;42408;-84
2023/10/25 11:07:53;;;;;;;3.03;2.73;;;;;;;17.94;62.73;97327.38;5074660;28;42010;-84
2023/10/25 11:10:21;;;;;;;3.30;2.97;;;;;;;17.81;63.88;97345.88;5091603;28;42226;-85
2023/10/25 11:12:51;;;;;;;2.90;2.70;;;;;;;17.32;65.46;97308.69;5092101;28;40560;-84
2023/10/25 11:15:24;;;;;;;3.10;2.80;;;;;;;17.17;66.36;97316.66;5092270;28;41375;-84
2023/10/25 11:17:51;;;;;;;2.37;2.10;;;;;;;16.98;67.93;97326.91;5091916;28;43061;-84
2023/10/25 11:20:19;;;;;;;2.80;2.60;;;;;;;16.61;69.69;97298.94;5075357;28;41226;-84
2023/10/25 11:22:47;;;;;;;2.50;2.30;;;;;;;16.39;72.28;97297.81;5075333;28;39494;-87
2023/10/25 11:25:21;;;;;;;2.50;2.30;;;;;;;16.05;73.55;97263.34;5075527;28;42786;-85
2023/10/25 11:27:51;;;;;;;3.07;2.77;;;;;;;16.07;75.11;97284.53;5109078;28;43261;-84
2023/10/25 11:30:19;;;;;;;3.30;3.00;;;;;;;15.74;77.36;97267.69;5093345;28;42186;-83
2023/10/25 11:32:48;;;;;;;3.90;3.53;;;;;;;15.61;78.31;97270.84;5075459;28;39475;-85
2023/10/25 11:35:23;;;;;;;3.37;2.60;;;;;;;15.32;79.41;97257.97;5075074;28;40744;-84
2023/10/25 11:37:52;;;;;;;3.47;3.17;;;;;;;15.31;80.53;97253.63;5073636;28;43236;-83
2023/10/25 11:40:21;;;;;;;3.50;3.20;;;;;;;15.31;81.49;97258.97;5107815;28;43094;-83
2023/10/25 11:42:50;;;;;;;3.87;3.43;;;;;;;14.94;82.51;97205.22;5074200;28;40388;-84
2023/10/25 11:45:19;;;;;;;3.37;3.07;;;;;;;15.34;82.73;97261.28;5090718;28;41822;-85
2023/10/25 11:47:47;;;;;;;4.70;3.30;;;;;;;15.40;83.77;97257.97;5125007;27;43152;-84
2023/10/25 11:50:15;;;;;;;3.77;3.40;;;;;;;15.48;84.39;97250.94;5073821;28;41263;-84
2023/10/25 11:52:42;;;;;;;5.20;4.20;;;;;;;15.45;84.52;97252.94;5125451;27;39808;-84
2023/10/25 11:55:10;;;;;;;4.63;4.03;;;;;;;15.41;84.40;97253.47;5074058;28;40768;-85
2023/10/25 11:57:38;;;;;;;5.53;3.87;;;;;;;15.24;84.95;97239.25;5090764;28;43452;-85
2023/10/25 12:00:09;;;;;;;4.57;3.97;;;;;;;15.22;85.37;97241.25;5073423;28;41237;-85
2023/10/25 12:02:41;;;;;;;5.13;3.50;;;;;;;15.30;85.66;97219.13;5074097;28;39221;-85
2023/10/25 12:05:09;;;;;;;4.70;3.20;;;;;;;15.34;85.56;97199.94;5073711;28;40768;-84
2023/10/25 12:07:36;;;;;;;3.40;2.87;;;;;;;15.45;85.84;97196.94;5073903;28;41825;-85
2023/10/25 12:10:04;;;;;;;7.10;4.00;;;;;;;15.49;86.25;97175.25;5073608;28;41184;-85
2023/10/25 12:12:33;;;;;;;4.13;3.63;;;;;;;15.66;86.94;97187.63;5074215;28;38973;-85
2023/10/25 12:15:00;;;;;;;4.30;3.90;;;;;;;15.71;86.70;97169.25;5074464;28;41948;-84
2023/10/25 12:17:29;;;;;;;3.80;3.50;;;;;;;15.78;85.72;97167.59;5091753;28;42910;-85
2023/10/25 12:19:57;;;;;;;3.40;3.10;;;;;;;15.71;86.23;97158.59;5074176;28;41217;-85
2023/10/25 12:22:24;;;;;;;3.83;3.47;;;;;;;15.64;86.69;97157.59;5091824;28;40621;-85
2023/10/25 12:24:52;;;;;;;3.93;3.43;;;;;;;15.46;86.67;97142.56;5089691;28;41918;-85
2023/10/25 12:27:19;;;;;;;3.63;3.33;;;;;;;15.14;87.34;97107.94;5072772;28;42937;-84
2023/10/25 12:29:47;;;;;;;3.57;3.27;;;;;;;15.47;88.06;97151.41;5073031;28;42143;-86
2023/10/25 12:32:15;;;;;;;3.63;3.07;;;;;;;15.34;88.39;97119.06;5073714;28;39354;-84
2023/10/25 12:34:44;;;;;;;4.43;3.80;;;;;;;15.38;88.77;97131.09;5072853;28;40786;-85
2023/10/25 12:37:11;;;;;;;3.90;3.53;;;;;;;15.31;89.72;97106.09;5073541;28;41630;-86
2023/10/25 12:39:39;;;;;;;5.33;4.07;;;;;;;15.10;90.19;97071.94;5073494;28;41446;-85
2023/10/25 12:42:07;;;;;;;7.07;3.90;;;;;;;15.18;90.40;97098.63;5074054;28;39165;-85
2023/10/25 12:44:34;;;;;;;4.20;3.63;;;;;;;15.14;90.21;97110.59;5074931;28;41310;-85
2023/10/25 12:47:03;;;;;;;4.33;3.77;;;;;;;15.09;90.92;97099.59;5093650;28;42296;-85
2023/10/25 12:49:31;;;;;;;3.63;3.33;;;;;;;15.04;91.53;97085.94;5073115;28;41379;-85
2023/10/25 12:52:02;;;;;;;3.57;3.27;;;;;;;15.03;91.59;97089.59;5073278;28;39696;-85
2023/10/25 12:54:29;;;;;;;4.50;3.60;;;;;;;14.99;92.50;97088.25;5088415;28;41771;-84
2023/10/25 12:56:57;;;;;;;3.60;3.30;;;;;;;14.99;92.55;97083.78;5089999;28;44481;-85
2023/10/25 12:59:25;;;;;;;3.90;3.60;;;;;;;14.91;93.10;97074.94;5074168;28;41068;-85
2023/10/25 13:01:52;;;;;;;5.30;3.63;;;;;;;14.98;93.16;97078.59;5073204;28;39672;-82
2023/10/25 13:04:20;;;;;;;6.57;2.93;;;;;;;14.88;93.42;97059.28;5073483;28;40856;-84
2023/10/25 13:06:48;;;;;;;8.17;3.10;;;;;;;14.89;93.01;97066.28;5073257;28;43551;-85
2023/10/25 13:09:17;;;;;;;2.63;2.43;;;;;;;14.76;93.28;97056.13;5073084;28;43644;-85
2023/10/25 13:11:45;;;;;;;3.03;2.20;;;;;;;14.84;92.73;97069.44;5090331;28;39134;-85
2023/10/25 13:14:12;;;;;;;2.97;2.70;;;;;;;14.74;92.82;97064.28;5091558;28;40573;-85
2023/10/25 13:16:40;;;;;;;2.83;2.63;;;;;;;14.64;92.82;97054.78;5094683;28;41688;-85
2023/10/25 13:19:08;;;;;;;2.30;2.10;;;;;;;14.75;93.02;97057.13;5077276;28;42332;-85
2023/10/25 13:21:38;;;;;;;3.50;2.93;;;;;;;14.67;92.85;97039.31;5111788;28;38869;-85
2023/10/25 13:24:08;;;;;;;2.73;2.47;;;;;;;14.53;92.64;97007.16;5077699;28;40893;-85
2023/10/25 13:26:38;;;;;;;3.40;2.07;;;;;;;14.86;92.61;97050.63;5077785;28;42661;-84
2023/10/25 13:29:05;;;;;;;3.20;2.90;;;;;;;14.80;92.87;97032.66;5076120;28;42265;-85
2023/10/25 13:31:33;;;;;;;3.43;2.70;;;;;;;14.87;93.05;97031.81;5093577;28;40659;-85
2023/10/25 13:34:01;;;;;;;3.80;3.50;;;;;;;14.90;93.28;97025.31;5076378;28;41712;-85
2023/10/25 13:36:28;;;;;;;5.23;3.97;;;;;;;14.90;94.35;97019.97;5079770;28;41664;-85
2023/10/25 13:38:56;;;;;;;4.63;3.80;;;;;;;14.70;94.60;96982.19;5099521;28;42007;-85
2023/10/25 13:41:23;;;;;;;3.80;3.33;;;;;;;14.83;94.54;97003.00;5087054;28;38878;-86
2023/10/25 13:43:52;;;;;;;3.50;3.03;;;;;;;14.69;95.05;96994.69;5093866;28;42593;-85
2023/10/25 13:46:20;;;;;;;4.50;3.60;;;;;;;14.73;95.52;97006.66;5076671;28;41680;-83
2023/10/25 13:48:47;;;;;;;3.63;3.30;;;;;;;14.52;96.24;96979.69;5076198;28;43070;-86
2023/10/25 13:51:15;;;;;;;4.00;3.03;;;;;;;14.62;96.46;96993.66;5076232;28;39215;-85
2023/10/25 13:53:43;;;;;;;5.13;3.30;;;;;;;14.71;97.66;97000.66;5076201;28;42072;-82
2023/10/25 13:56:13;;;;;;;4.03;3.63;;;;;;;14.64;96.99;96981.03;5092926;28;43415;-85
2023/10/25 13:58:40;;;;;;;3.50;3.20;;;;;;;14.61;97.04;96968.03;5076103;28;40776;-84
2023/10/25 14:01:09;;;;;;;3.30;2.80;;;;;;;14.70;97.37;96982.19;5093144;28;40152;-84
2023/10/25 14:03:37;;;;;;;4.00;3.07;;;;;;;14.69;96.82;96981.38;5076709;28;40732;-85
2023/10/25 14:06:05;;;;;;;3.90;3.30;;;;;;;14.69;96.95;96984.03;5076052;28;43038;-85
2023/10/25 14:08:33;;;;;;;3.10;2.83;;;;;;;14.70;97.54;96980.38;5094327;28;42327;-85
2023/10/25 14:11:01;;;;;;;3.87;3.50;;;;;;;14.58;97.85;96956.91;5092941;28;40129;-85
2023/10/25 14:13:29;;;;;;;4.93;3.50;;;;;;;14.53;97.54;96952.06;5077087;28;43436;-86
2023/10/25 14:15:56;;;;;;;4.20;3.20;;;;;;;14.56;97.87;96954.41;5076876;28;43059;-86
2023/10/25 14:18:25;;;;;;;3.03;2.77;;;;;;;14.58;97.68;96960.41;5077171;28;42460;-85
2023/10/25 14:20:53;;;;;;;3.10;2.83;;;;;;;14.53;98.17;96943.22;5076814;28;39482;-85
2023/10/25 14:23:20;;;;;;;3.50;3.20;;;;;;;14.42;97.58;96927.59;5077051;28;42081;-85
2023/10/25 14:25:48;;;;;;;4.30;3.50;;;;;;;14.39;98.13;96931.38;5076342;28;43346;-84
2023/10/25 14:28:15;;;;;;;3.93;3.40;;;;;;;14.31;97.83;96924.25;5093533;28;41957;-85
2023/10/25 14:30:44;;;;;;;3.90;3.00;;;;;;;14.45;98.78;96948.56;5093035;28;40494;-84
2023/10/25 14:33:11;;;;;;;4.93;4.53;;;;;;;14.31;98.79;96936.72;5110670;28;41211;-85
2023/10/25 14:35:40;;;;;;;5.27;4.77;;;;;;;14.23;98.83;96920.72;5091163;28;42783;-85
2023/10/25 14:38:08;;;;;;;5.67;5.07;;;;;;;14.22;98.74;96924.38;5076256;28;43895;-84
2023/10/25 14:40:40;;;;;;;4.70;4.40;;;;;;;14.19;99.13;96920.25;5071868;28;40006;-83
2023/10/25 14:43:08;;;;;;;5.60;4.00;;;;;;;14.11;99.22;96911.41;5070491;28;42513;-86
2023/10/25 14:45:36;;;;;;;3.40;3.20;;;;;;;14.18;99.52;96907.09;5073762;28;42697;-87
2023/10/25 14:48:04;;;;;;;4.07;3.40;;;;;;;14.17;99.59;96908.09;5074773;28;40919;-84
2023/10/25 14:50:34;;;;;;;6.03;5.63;;;;;;;14.17;99.75;96906.25;5074347;28;41316;-86
2023/10/25 14:53:03;;;;;;;5.77;5.27;;;;;;;14.14;99.68;96900.44;5091910;28;42719;-85
2023/10/25 14:55:34;;;;;;;6.13;5.63;;;;;;;14.15;99.32;96897.59;5074307;28;42919;-84
2023/10/25 14:58:01;;;;;;;4.63;3.10;;;;;;;14.22;99.53;96903.09;5091755;28;40869;-84
2023/10/25 15:00:29;;;;;;;4.17;3.87;;;;;;;14.23;99.56;96899.41;5074349;28;39942;-86
2023/10/25 15:02:57;;;;;;;3.70;3.40;;;;;;;14.25;99.56;96892.09;5074317;28;41914;-85
2023/10/25 15:05:24;;;;;;;3.87;3.57;;;;;;;14.25;99.38;96892.09;5090786;28;41935;-86
2023/10/25 15:07:53;;;;;;;7.50;6.80;;;;;;;14.22;99.87;96881.78;5074532;28;41645;-85
2023/10/25 15:10:22;;;;;;;6.63;6.13;;;;;;;14.11;99.21;96858.16;5073856;28;41675;-85
2023/10/25 15:12:50;;;;;;;5.70;5.20;;;;;;;14.26;99.07;96862.66;5093805;28;41426;-86
2023/10/25 15:15:17;;;;;;;5.60;5.10;;;;;;;14.43;98.96;96879.50;5076630;28;41965;-85
2023/10/25 15:17:46;;;;;;;5.07;4.40;;;;;;;14.47;99.05;96875.47;5075810;28;41377;-85
2023/10/25 15:20:15;;;;;;;4.13;3.83;;;;;;;14.48;98.59;96868.31;5075464;28;39273;-85
2023/10/25 15:22:43;;;;;;;3.13;2.83;;;;;;;14.29;98.98;96845.53;5075364;28;41635;-85
2023/10/25 15:25:11;;;;;;;6.30;3.20;;;;;;;14.35;98.85;96861.66;5074863;28;44068;-85
2023/10/25 15:27:40;;;;;;;4.20;3.60;;;;;;;14.32;99.03;96866.50;5089518;28;43195;-85
2023/10/25 15:30:11;;;;;;;3.47;3.17;;;;;;;14.02;99.17;96817.41;5089706;28;39798;-85
2023/10/25 15:32:38;;;;;;;4.77;4.37;;;;;;;14.12;99.12;96838.53;5073227;28;41058;-85
2023/10/25 15:35:07;;;;;;;4.30;3.90;;;;;;;14.16;99.37;96847.84;5073160;28;41834;-84
2023/10/25 15:37:35;;;;;;;3.60;3.30;;;;;;;14.23;99.32;96852.34;5073285;28;41285;-85
2023/10/25 15:40:02;;;;;;;3.40;2.90;;;;;;;14.12;98.86;96834.03;5090108;28;40194;-85
2023/10/25 15:42:34;;;;;;;2.97;2.67;;;;;;;14.15;98.95;96839.03;5090944;28;40952;-85
2023/10/25 15:45:04;;;;;;;3.60;3.20;;;;;;;14.23;99.46;96852.34;5090856;28;41860;-84
2023/10/25 15:47:33;;;;;;;3.83;3.10;;;;;;;14.14;99.17;96844.53;5091398;28;41244;-85
2023/10/25 15:50:01;;;;;;;2.90;2.70;;;;;;;14.17;99.50;96852.19;5091449;28;40884;-85
2023/10/25 15:52:28;;;;;;;3.40;3.03;;;;;;;14.03;99.04;96825.25;5092434;28;42674;-84
2023/10/25 15:54:56;;;;;;;3.73;3.43;;;;;;;14.13;99.58;96851.69;5072823;28;43708;-85
2023/10/25 15:57:26;;;;;;;2.83;2.63;;;;;;;14.09;99.65;96834.41;5091066;28;42258;-85
2023/10/25 15:59:54;;;;;;;3.00;2.73;;;;;;;14.09;99.89;96841.56;5090478;28;40002;-86
2023/10/25 16:02:23;;;;;;;3.10;2.57;;;;;;;14.15;99.68;96846.19;5074300;28;40822;-84
2023/10/25 16:04:50;;;;;;;3.57;2.60;;;;;;;14.14;99.66;96841.88;5091352;28;42684;-84
2023/10/25 16:07:18;;;;;;;2.67;2.47;;;;;;;14.15;99.78;96838.22;5074238;28;41034;-85
2023/10/25 16:09:46;;;;;;;3.20;2.83;;;;;;;14.06;99.96;96823.25;5073251;28;39868;-85
2023/10/25 16:12:15;;;;;;;3.30;3.00;;;;;;;13.72;100.00;96773.72;5074339;28;42165;-83
2023/10/25 16:14:43;;;;;;;3.50;2.87;;;;;;;14.05;100.00;96822.41;5074172;28;43276;-86
2023/10/25 16:17:11;;;;;;;3.90;2.67;;;;;;;13.93;100.00;96808.63;5092247;28;42064;-84
2023/10/25 16:19:46;;;;;;;3.17;2.87;;;;;;;13.94;100.00;96794.31;5089427;28;40734;-85
2023/10/25 16:22:19;;;;;;;2.90;2.37;;;;;;;13.93;100.00;96795.31;5092174;28;42544;-85
2023/10/25 16:24:47;;;;;;;2.97;2.60;;;;;;;14.01;100.00;96799.78;5074140;28;41775;-86
2023/10/25 16:27:14;;;;;;;3.73;2.60;;;;;;;14.03;100.00;96801.28;5074331;28;41262;-87
2023/10/25 16:29:42;;;;;;;2.83;2.60;;;;;;;13.96;100.00;96773.69;5074238;28;39939;-84
2023/10/25 16:32:10;;;;;;;2.90;2.60;;;;;;;13.84;100.00;96761.75;5087293;28;41934;-86
2023/10/25 16:34:37;;;;;;;2.50;2.30;;;;;;;14.08;100.00;96805.28;5097712;28;44127;-85
2023/10/25 16:37:07;;;;;;;3.07;2.80;;;;;;;14.07;100.00;96790.31;5075708;28;41053;-87
2023/10/25 16:39:35;;;;;;;3.40;3.10;;;;;;;14.12;100.00;96793.28;5073113;28;40939;-85
2023/10/25 16:42:03;;;;;;;4.13;3.60;;;;;;;14.02;100.00;96783.66;5073049;28;40788;-85
2023/10/25 16:44:31;;;;;;;3.70;3.23;;;;;;;13.91;100.00;96767.22;5072453;28;42833;-85
2023/10/25 16:46:58;;;;;;;3.70;3.07;;;;;;;14.07;100.00;96808.94;5089964;28;42154;-85
2023/10/25 16:49:26;;;;;;;3.33;3.07;;;;;;;13.96;100.00;96781.69;5073180;28;41409;-86
2023/10/25 16:51:57;;;;;;;2.97;2.70;;;;;;;14.02;100.00;96785.50;5076019;28;40748;-86
2023/10/25 16:54:26;;;;;;;3.60;3.30;;;;;;;13.93;100.00;96779.34;5077050;28;41960;-86
2023/10/25 16:56:53;;;;;;;3.67;3.37;;;;;;;13.79;100.00;96753.41;5077088;28;42157;-85
2023/10/25 16:59:21;;;;;;;3.87;3.57;;;;;;;13.91;100.00;96767.22;5076472;28;38794;-85
2023/10/25 17:01:48;;;;;;;3.00;2.70;;;;;;;13.99;100.00;96777.84;5092344;28;41990;-85
2023/10/25 17:04:16;;;;;;;5.63;2.87;;;;;;;13.90;100.00;96761.06;5076557;28;43589;-87
2023/10/25 17:06:44;;;;;;;4.13;2.73;;;;;;;13.89;100.00;96759.38;5076606;28;41916;-87
2023/10/25 17:09:12;;;;;;;3.00;2.77;;;;;;;13.94;100.00;96765.06;5076072;28;40257;-87
2023/10/25 17:11:41;;;;;;;2.83;2.47;;;;;;;13.89;100.00;96751.41;5076723;28;42600;-87
2023/10/25 17:14:09;;;;;;;3.30;2.63;;;;;;;13.89;100.00;96747.91;5077846;28;42690;-86
2023/10/25 17:16:38;;;;;;;3.43;2.47;;;;;;;13.63;100.00;96708.19;5077691;28;42417;-86
2023/10/25 17:19:05;;;;;;;2.93;2.17;;;;;;;13.90;100.00;96744.25;5061708;28;39754;-87
2023/10/25 17:21:33;;;;;;;2.03;1.83;;;;;;;13.99;100.00;96757.38;5077674;28;42138;-88
2023/10/25 17:24:04;;;;;;;2.70;2.07;;;;;;;13.86;100.00;96727.78;5077884;28;42573;-85
2023/10/25 17:26:32;;;;;;;2.20;2.00;;;;;;;13.93;100.00;96744.75;5077685;28;41356;-85
2023/10/25 17:29:02;;;;;;;2.20;2.00;;;;;;;13.97;100.00;96750.59;5077099;28;39974;-86
2023/10/25 17:31:31;;;;;;;2.20;1.80;;;;;;;13.98;100.00;96754.88;5077617;28;42430;-87
2023/10/25 17:33:59;;;;;;;2.37;1.60;;;;;;;13.87;100.00;96734.78;5075916;28;44581;-84
2023/10/25 17:36:27;;;;;;;1.80;1.50;;;;;;;13.91;100.00;96730.78;5095048;28;42253;-85
2023/10/25 17:38:55;;;;;;;1.43;1.33;;;;;;;13.92;100.00;96727.13;5077142;28;39343;-86
2023/10/25 17:41:22;;;;;;;1.47;1.30;;;;;;;13.92;100.00;96737.78;5075458;28;40821;-83
2023/10/25 17:43:50;;;;;;;1.77;1.60;;;;;;;13.90;100.00;96713.16;5075604;28;42133;-86
2023/10/25 17:46:19;;;;;;;1.77;1.30;;;;;;;13.99;100.00;96727.28;5076355;28;42635;-86
2023/10/25 17:48:47;;;;;;;2.03;1.43;;;;;;;13.97;100.00;96716.78;5075875;28;40196;-85
2023/10/25 17:51:30;;;;;;;2.40;1.50;;;;;;;13.78;100.00;96700.38;5076345;28;41647;-87
2023/10/25 17:53:57;;;;;;;1.37;1.17;;;;;;;13.83;100.00;96717.50;5076043;28;41963;-86
